sensor_id;sensor_type;location;lat;lon;timestamp;temperature;humidity
15394;DHT22;7795;47.986;11.868;2023-11-21T00:02:12;8.30;71.30
15394;DHT22;7795;47.986;11.868;2023-11-21T00:04:39;8.30;71.50
15394;DHT22;7795;47.986;11.868;2023-11-21T00:07:05;8.30;71.70
15394;DHT22;7795;47.986;11.868;2023-11-21T00:09:31;8.30;71.70
15394;DHT22;7795;47.986;11.868;2023-11-21T00:11:57;8.30;71.90
15394;DHT22;7795;47.986;11.868;2023-11-21T00:14:24;8.30;72.00
15394;DHT22;7795;47.986;11.868;2023-11-21T00:16:50;8.30;72.10
15394;DHT22;7795;47.986;11.868;2023-11-21T00:19:16;8.30;72.20
15394;DHT22;7795;47.986;11.868;2023-11-21T00:21:43;8.30;73.00
15394;DHT22;7795;47.986;11.868;2023-11-21T00:24:10;8.30;72.40
15394;DHT22;7795;47.986;11.868;2023-11-21T00:26:38;8.40;72.60
15394;DHT22;7795;47.986;11.868;2023-11-21T00:29:04;8.40;72.80
15394;DHT22;7795;47.986;11.868;2023-11-21T00:31:33;8.40;72.90
15394;DHT22;7795;47.986;11.868;2023-11-21T00:33:59;8.40;72.90
15394;DHT22;7795;47.986;11.868;2023-11-21T00:36:25;8.40;73.00
15394;DHT22;7795;47.986;11.868;2023-11-21T00:38:52;8.50;73.20
15394;DHT22;7795;47.986;11.868;2023-11-21T00:41:18;8.50;73.20
15394;DHT22;7795;47.986;11.868;2023-11-21T00:43:44;8.50;73.20
15394;DHT22;7795;47.986;11.868;2023-11-21T00:46:09;8.50;73.30
15394;DHT22;7795;47.986;11.868;2023-11-21T00:48:35;8.60;73.30
15394;DHT22;7795;47.986;11.868;2023-11-21T00:51:01;8.60;73.20
15394;DHT22;7795;47.986;11.868;2023-11-21T00:53:27;8.60;73.20
15394;DHT22;7795;47.986;11.868;2023-11-21T00:55:54;8.60;73.00
15394;DHT22;7795;47.986;11.868;2023-11-21T00:58:22;8.70;73.10
15394;DHT22;7795;47.986;11.868;2023-11-21T01:00:48;8.70;72.90
15394;DHT22;7795;47.986;11.868;2023-11-21T01:03:14;8.70;72.90
15394;DHT22;7795;47.986;11.868;2023-11-21T01:05:39;8.70;73.00
15394;DHT22;7795;47.986;11.868;2023-11-21T01:08:05;8.70;73.00
15394;DHT22;7795;47.986;11.868;2023-11-21T01:10:31;8.70;73.10
15394;DHT22;7795;47.986;11.868;2023-11-21T01:12:58;8.70;73.00
15394;DHT22;7795;47.986;11.868;2023-11-21T01:15:24;8.70;73.20
15394;DHT22;7795;47.986;11.868;2023-11-21T01:17:51;8.70;73.10
15394;DHT22;7795;47.986;11.868;2023-11-21T01:20:17;8.70;73.10
15394;DHT22;7795;47.986;11.868;2023-11-21T01:22:43;8.70;73.20
15394;DHT22;7795;47.986;11.868;2023-11-21T01:25:09;8.80;73.30
15394;DHT22;7795;47.986;11.868;2023-11-21T01:27:36;8.80;73.40
15394;DHT22;7795;47.986;11.868;2023-11-21T01:30:04;8.80;73.50
15394;DHT22;7795;47.986;11.868;2023-11-21T01:32:32;8.80;73.60
15394;DHT22;7795;47.986;11.868;2023-11-21T01:34:58;8.80;73.50
15394;DHT22;7795;47.986;11.868;2023-11-21T01:37:24;8.80;73.60
15394;DHT22;7795;47.986;11.868;2023-11-21T01:39:53;8.80;73.50
15394;DHT22;7795;47.986;11.868;2023-11-21T01:42:18;8.90;73.60
15394;DHT22;7795;47.986;11.868;2023-11-21T01:44:44;8.80;73.60
15394;DHT22;7795;47.986;11.868;2023-11-21T01:47:11;8.90;73.60
15394;DHT22;7795;47.986;11.868;2023-11-21T01:49:38;8.90;73.60
15394;DHT22;7795;47.986;11.868;2023-11-21T01:52:04;8.90;73.50
15394;DHT22;7795;47.986;11.868;2023-11-21T01:54:30;8.90;73.60
15394;DHT22;7795;47.986;11.868;2023-11-21T01:56:59;8.90;73.60
15394;DHT22;7795;47.986;11.868;2023-11-21T01:59:34;8.90;73.60
15394;DHT22;7795;47.986;11.868;2023-11-21T02:02:00;8.90;73.80
15394;DHT22;7795;47.986;11.868;2023-11-21T02:04:27;9.00;73.60
15394;DHT22;7795;47.986;11.868;2023-11-21T02:06:52;9.00;73.80
15394;DHT22;7795;47.986;11.868;2023-11-21T02:09:24;9.00;73.70
15394;DHT22;7795;47.986;11.868;2023-11-21T02:11:50;9.00;73.80
15394;DHT22;7795;47.986;11.868;2023-11-21T02:14:15;9.00;73.60
15394;DHT22;7795;47.986;11.868;2023-11-21T02:16:42;9.00;73.50
15394;DHT22;7795;47.986;11.868;2023-11-21T02:19:13;8.90;73.30
15394;DHT22;7795;47.986;11.868;2023-11-21T02:21:42;8.90;73.30
15394;DHT22;7795;47.986;11.868;2023-11-21T02:24:11;8.90;73.30
15394;DHT22;7795;47.986;11.868;2023-11-21T02:26:37;8.90;74.10
15394;DHT22;7795;47.986;11.868;2023-11-21T02:29:03;8.80;73.30
15394;DHT22;7795;47.986;11.868;2023-11-21T02:31:30;8.80;73.40
15394;DHT22;7795;47.986;11.868;2023-11-21T02:33:58;8.80;73.50
15394;DHT22;7795;47.986;11.868;2023-11-21T02:36:24;8.80;73.60
15394;DHT22;7795;47.986;11.868;2023-11-21T02:38:50;8.80;73.70
15394;DHT22;7795;47.986;11.868;2023-11-21T02:41:17;8.80;73.80
15394;DHT22;7795;47.986;11.868;2023-11-21T02:43:42;8.70;73.90
15394;DHT22;7795;47.986;11.868;2023-11-21T02:46:08;8.70;73.90
15394;DHT22;7795;47.986;11.868;2023-11-21T02:48:34;8.80;74.20
15394;DHT22;7795;47.986;11.868;2023-11-21T02:51:01;8.80;74.30
15394;DHT22;7795;47.986;11.868;2023-11-21T02:53:26;8.80;74.30
15394;DHT22;7795;47.986;11.868;2023-11-21T02:55:52;8.80;74.40
15394;DHT22;7795;47.986;11.868;2023-11-21T02:58:19;8.80;74.50
15394;DHT22;7795;47.986;11.868;2023-11-21T03:00:45;8.90;74.60
15394;DHT22;7795;47.986;11.868;2023-11-21T03:03:11;8.80;74.50
15394;DHT22;7795;47.986;11.868;2023-11-21T03:05:37;8.90;74.60
15394;DHT22;7795;47.986;11.868;2023-11-21T03:08:03;8.90;74.60
15394;DHT22;7795;47.986;11.868;2023-11-21T03:10:28;8.90;74.60
15394;DHT22;7795;47.986;11.868;2023-11-21T03:12:54;8.90;74.60
15394;DHT22;7795;47.986;11.868;2023-11-21T03:15:21;8.90;74.60
15394;DHT22;7795;47.986;11.868;2023-11-21T03:17:47;9.00;74.60
15394;DHT22;7795;47.986;11.868;2023-11-21T03:20:14;9.00;74.70
15394;DHT22;7795;47.986;11.868;2023-11-21T03:26:04;9.00;75.20
15394;DHT22;7795;47.986;11.868;2023-11-21T03:28:30;8.90;74.50
15394;DHT22;7795;47.986;11.868;2023-11-21T03:30:57;8.90;74.60
15394;DHT22;7795;47.986;11.868;2023-11-21T03:33:23;8.90;74.90
15394;DHT22;7795;47.986;11.868;2023-11-21T03:35:49;8.90;75.00
15394;DHT22;7795;47.986;11.868;2023-11-21T03:38:15;8.80;75.10
15394;DHT22;7795;47.986;11.868;2023-11-21T03:40:41;8.80;75.30
15394;DHT22;7795;47.986;11.868;2023-11-21T03:43:07;8.90;75.60
15394;DHT22;7795;47.986;11.868;2023-11-21T03:45:32;8.90;75.80
15394;DHT22;7795;47.986;11.868;2023-11-21T03:48:00;8.90;75.90
15394;DHT22;7795;47.986;11.868;2023-11-21T03:50:27;8.90;76.10
15394;DHT22;7795;47.986;11.868;2023-11-21T03:52:53;8.90;76.10
15394;DHT22;7795;47.986;11.868;2023-11-21T03:55:18;8.90;76.10
15394;DHT22;7795;47.986;11.868;2023-11-21T03:57:44;9.00;76.40
15394;DHT22;7795;47.986;11.868;2023-11-21T04:00:11;9.00;76.50
15394;DHT22;7795;47.986;11.868;2023-11-21T04:02:36;9.00;76.70
15394;DHT22;7795;47.986;11.868;2023-11-21T04:05:04;9.10;77.60
15394;DHT22;7795;47.986;11.868;2023-11-21T04:07:30;9.10;77.00
15394;DHT22;7795;47.986;11.868;2023-11-21T04:09:56;9.20;77.00
15394;DHT22;7795;47.986;11.868;2023-11-21T04:12:22;9.30;77.10
15394;DHT22;7795;47.986;11.868;2023-11-21T04:14:48;9.40;77.00
15394;DHT22;7795;47.986;11.868;2023-11-21T04:17:13;9.40;76.90
15394;DHT22;7795;47.986;11.868;2023-11-21T04:19:39;9.50;77.70
15394;DHT22;7795;47.986;11.868;2023-11-21T04:22:06;9.50;76.90
15394;DHT22;7795;47.986;11.868;2023-11-21T04:24:32;9.60;76.90
15394;DHT22;7795;47.986;11.868;2023-11-21T04:26:57;9.60;76.80
15394;DHT22;7795;47.986;11.868;2023-11-21T04:29:23;9.70;76.80
15394;DHT22;7795;47.986;11.868;2023-11-21T04:31:49;9.70;76.70
15394;DHT22;7795;47.986;11.868;2023-11-21T04:34:15;9.80;76.70
15394;DHT22;7795;47.986;11.868;2023-11-21T04:36:41;9.80;76.60
15394;DHT22;7795;47.986;11.868;2023-11-21T04:39:08;9.80;76.60
15394;DHT22;7795;47.986;11.868;2023-11-21T04:41:34;9.90;76.70
15394;DHT22;7795;47.986;11.868;2023-11-21T04:44:00;9.90;76.60
15394;DHT22;7795;47.986;11.868;2023-11-21T04:46:26;10.00;76.70
15394;DHT22;7795;47.986;11.868;2023-11-21T04:48:52;10.00;76.70
15394;DHT22;7795;47.986;11.868;2023-11-21T04:51:17;10.00;76.70
15394;DHT22;7795;47.986;11.868;2023-11-21T04:53:43;10.10;76.70
15394;DHT22;7795;47.986;11.868;2023-11-21T04:56:10;10.10;76.70
15394;DHT22;7795;47.986;11.868;2023-11-21T04:58:36;10.10;76.80
15394;DHT22;7795;47.986;11.868;2023-11-21T05:01:02;10.10;76.90
15394;DHT22;7795;47.986;11.868;2023-11-21T05:03:28;10.20;76.90
15394;DHT22;7795;47.986;11.868;2023-11-21T05:05:55;10.20;76.90
15394;DHT22;7795;47.986;11.868;2023-11-21T05:08:21;10.20;76.90
15394;DHT22;7795;47.986;11.868;2023-11-21T05:10:47;10.20;76.90
15394;DHT22;7795;47.986;11.868;2023-11-21T05:13:15;10.20;76.90
15394;DHT22;7795;47.986;11.868;2023-11-21T05:15:42;10.20;77.00
15394;DHT22;7795;47.986;11.868;2023-11-21T05:18:08;10.30;77.00
15394;DHT22;7795;47.986;11.868;2023-11-21T05:20:34;10.30;77.10
15394;DHT22;7795;47.986;11.868;2023-11-21T05:22:59;10.30;77.00
15394;DHT22;7795;47.986;11.868;2023-11-21T05:25:25;10.30;76.90
15394;DHT22;7795;47.986;11.868;2023-11-21T05:27:51;10.30;76.90
15394;DHT22;7795;47.986;11.868;2023-11-21T05:30:18;10.30;76.90
15394;DHT22;7795;47.986;11.868;2023-11-21T05:32:44;10.30;77.00
15394;DHT22;7795;47.986;11.868;2023-11-21T05:35:10;10.30;76.90
15394;DHT22;7795;47.986;11.868;2023-11-21T05:37:40;10.30;76.90
15394;DHT22;7795;47.986;11.868;2023-11-21T05:40:07;10.30;76.90
15394;DHT22;7795;47.986;11.868;2023-11-21T05:42:33;10.30;77.60
15394;DHT22;7795;47.986;11.868;2023-11-21T05:44:59;10.30;76.80
15394;DHT22;7795;47.986;11.868;2023-11-21T05:47:39;10.30;76.60
15394;DHT22;7795;47.986;11.868;2023-11-21T05:50:07;10.30;76.50
15394;DHT22;7795;47.986;11.868;2023-11-21T05:52:36;10.30;76.60
15394;DHT22;7795;47.986;11.868;2023-11-21T05:55:01;10.20;76.40
15394;DHT22;7795;47.986;11.868;2023-11-21T05:57:27;10.30;76.50
15394;DHT22;7795;47.986;11.868;2023-11-21T05:59:53;10.30;76.40
15394;DHT22;7795;47.986;11.868;2023-11-21T06:02:18;10.30;76.50
15394;DHT22;7795;47.986;11.868;2023-11-21T06:04:46;10.30;76.60
15394;DHT22;7795;47.986;11.868;2023-11-21T06:07:12;10.30;76.60
15394;DHT22;7795;47.986;11.868;2023-11-21T06:09:37;10.30;76.50
15394;DHT22;7795;47.986;11.868;2023-11-21T06:12:04;10.30;76.40
15394;DHT22;7795;47.986;11.868;2023-11-21T06:14:29;10.30;76.40
15394;DHT22;7795;47.986;11.868;2023-11-21T06:16:55;10.30;76.40
15394;DHT22;7795;47.986;11.868;2023-11-21T06:19:22;10.40;76.40
15394;DHT22;7795;47.986;11.868;2023-11-21T06:21:49;10.40;76.40
15394;DHT22;7795;47.986;11.868;2023-11-21T06:24:14;10.40;76.40
15394;DHT22;7795;47.986;11.868;2023-11-21T06:26:41;10.40;76.40
15394;DHT22;7795;47.986;11.868;2023-11-21T06:29:06;10.40;76.60
15394;DHT22;7795;47.986;11.868;2023-11-21T06:31:32;10.40;76.70
15394;DHT22;7795;47.986;11.868;2023-11-21T06:33:58;10.40;76.70
15394;DHT22;7795;47.986;11.868;2023-11-21T06:36:25;10.40;76.70
15394;DHT22;7795;47.986;11.868;2023-11-21T06:38:56;10.40;76.90
15394;DHT22;7795;47.986;11.868;2023-11-21T06:41:22;10.40;77.00
15394;DHT22;7795;47.986;11.868;2023-11-21T06:43:48;10.50;77.00
15394;DHT22;7795;47.986;11.868;2023-11-21T06:46:15;10.40;77.00
15394;DHT22;7795;47.986;11.868;2023-11-21T06:48:42;10.50;77.00
15394;DHT22;7795;47.986;11.868;2023-11-21T06:51:08;10.50;77.00
15394;DHT22;7795;47.986;11.868;2023-11-21T06:53:34;10.50;76.90
15394;DHT22;7795;47.986;11.868;2023-11-21T06:56:02;10.50;77.00
15394;DHT22;7795;47.986;11.868;2023-11-21T06:58:28;10.50;77.00
15394;DHT22;7795;47.986;11.868;2023-11-21T07:00:54;10.50;77.00
15394;DHT22;7795;47.986;11.868;2023-11-21T07:03:20;10.50;77.90
15394;DHT22;7795;47.986;11.868;2023-11-21T07:05:45;10.60;77.20
15394;DHT22;7795;47.986;11.868;2023-11-21T07:08:11;10.50;77.20
15394;DHT22;7795;47.986;11.868;2023-11-21T07:10:38;10.60;77.30
15394;DHT22;7795;47.986;11.868;2023-11-21T07:13:05;10.50;77.30
15394;DHT22;7795;47.986;11.868;2023-11-21T07:15:30;10.60;78.20
15394;DHT22;7795;47.986;11.868;2023-11-21T07:17:56;10.60;77.40
15394;DHT22;7795;47.986;11.868;2023-11-21T07:20:22;10.60;78.30
15394;DHT22;7795;47.986;11.868;2023-11-21T07:22:49;10.60;77.60
15394;DHT22;7795;47.986;11.868;2023-11-21T07:25:14;10.60;77.90
15394;DHT22;7795;47.986;11.868;2023-11-21T07:27:40;10.60;77.70
15394;DHT22;7795;47.986;11.868;2023-11-21T07:30:08;10.60;77.70
15394;DHT22;7795;47.986;11.868;2023-11-21T07:32:35;10.60;77.90
15394;DHT22;7795;47.986;11.868;2023-11-21T07:35:01;10.60;78.50
15394;DHT22;7795;47.986;11.868;2023-11-21T07:37:26;10.60;77.80
15394;DHT22;7795;47.986;11.868;2023-11-21T07:39:54;10.60;77.80
15394;DHT22;7795;47.986;11.868;2023-11-21T07:42:21;10.60;77.80
15394;DHT22;7795;47.986;11.868;2023-11-21T07:44:47;10.60;77.80
15394;DHT22;7795;47.986;11.868;2023-11-21T07:47:14;10.70;77.90
15394;DHT22;7795;47.986;11.868;2023-11-21T07:49:40;10.70;77.90
15394;DHT22;7795;47.986;11.868;2023-11-21T07:52:08;10.70;77.90
15394;DHT22;7795;47.986;11.868;2023-11-21T07:54:34;10.70;77.80
15394;DHT22;7795;47.986;11.868;2023-11-21T07:57:01;10.70;77.70
15394;DHT22;7795;47.986;11.868;2023-11-21T07:59:27;10.70;77.70
15394;DHT22;7795;47.986;11.868;2023-11-21T08:01:52;10.70;77.70
15394;DHT22;7795;47.986;11.868;2023-11-21T08:04:19;10.70;77.70
15394;DHT22;7795;47.986;11.868;2023-11-21T08:06:45;10.70;77.70
15394;DHT22;7795;47.986;11.868;2023-11-21T08:09:11;10.70;77.70
15394;DHT22;7795;47.986;11.868;2023-11-21T08:11:38;10.70;77.70
15394;DHT22;7795;47.986;11.868;2023-11-21T08:14:04;10.70;77.70
15394;DHT22;7795;47.986;11.868;2023-11-21T08:16:30;10.70;77.60
15394;DHT22;7795;47.986;11.868;2023-11-21T08:18:56;10.80;77.70
15394;DHT22;7795;47.986;11.868;2023-11-21T08:21:23;10.80;77.70
15394;DHT22;7795;47.986;11.868;2023-11-21T08:23:52;10.80;77.90
15394;DHT22;7795;47.986;11.868;2023-11-21T08:26:19;10.80;77.90
15394;DHT22;7795;47.986;11.868;2023-11-21T08:28:45;10.80;77.90
15394;DHT22;7795;47.986;11.868;2023-11-21T08:31:11;10.90;77.90
15394;DHT22;7795;47.986;11.868;2023-11-21T08:33:36;10.90;77.90
15394;DHT22;7795;47.986;11.868;2023-11-21T08:36:07;10.90;77.90
15394;DHT22;7795;47.986;11.868;2023-11-21T08:38:34;11.00;78.10
15394;DHT22;7795;47.986;11.868;2023-11-21T08:41:04;11.00;77.90
15394;DHT22;7795;47.986;11.868;2023-11-21T08:43:33;11.00;77.80
15394;DHT22;7795;47.986;11.868;2023-11-21T08:45:59;11.00;77.70
15394;DHT22;7795;47.986;11.868;2023-11-21T08:48:25;11.10;77.80
15394;DHT22;7795;47.986;11.868;2023-11-21T08:50:51;11.10;77.90
15394;DHT22;7795;47.986;11.868;2023-11-21T08:53:16;11.10;77.80
15394;DHT22;7795;47.986;11.868;2023-11-21T08:55:43;11.10;77.70
15394;DHT22;7795;47.986;11.868;2023-11-21T08:58:09;11.20;77.70
15394;DHT22;7795;47.986;11.868;2023-11-21T09:00:35;11.20;77.40
15394;DHT22;7795;47.986;11.868;2023-11-21T09:03:01;11.20;77.40
15394;DHT22;7795;47.986;11.868;2023-11-21T09:05:29;11.20;77.40
15394;DHT22;7795;47.986;11.868;2023-11-21T09:07:55;11.20;77.30
15394;DHT22;7795;47.986;11.868;2023-11-21T09:10:21;11.30;77.40
15394;DHT22;7795;47.986;11.868;2023-11-21T09:12:48;11.30;77.40
15394;DHT22;7795;47.986;11.868;2023-11-21T09:15:14;11.30;77.20
15394;DHT22;7795;47.986;11.868;2023-11-21T09:17:40;11.30;77.00
15394;DHT22;7795;47.986;11.868;2023-11-21T09:20:07;11.30;77.00
15394;DHT22;7795;47.986;11.868;2023-11-21T09:22:35;11.30;77.00
15394;DHT22;7795;47.986;11.868;2023-11-21T09:25:02;11.40;76.90
15394;DHT22;7795;47.986;11.868;2023-11-21T09:27:30;11.40;76.80
15394;DHT22;7795;47.986;11.868;2023-11-21T09:29:57;11.40;76.70
15394;DHT22;7795;47.986;11.868;2023-11-21T09:32:23;11.40;76.70
15394;DHT22;7795;47.986;11.868;2023-11-21T09:34:50;11.40;76.70
15394;DHT22;7795;47.986;11.868;2023-11-21T09:37:16;11.40;76.60
15394;DHT22;7795;47.986;11.868;2023-11-21T09:39:41;11.40;76.50
15394;DHT22;7795;47.986;11.868;2023-11-21T09:42:10;11.40;76.50
15394;DHT22;7795;47.986;11.868;2023-11-21T09:44:50;11.40;76.40
15394;DHT22;7795;47.986;11.868;2023-11-21T09:47:18;11.40;76.60
15394;DHT22;7795;47.986;11.868;2023-11-21T09:49:47;11.40;76.50
15394;DHT22;7795;47.986;11.868;2023-11-21T09:52:21;11.50;76.50
15394;DHT22;7795;47.986;11.868;2023-11-21T09:54:49;11.50;76.40
15394;DHT22;7795;47.986;11.868;2023-11-21T09:57:15;11.50;76.40
15394;DHT22;7795;47.986;11.868;2023-11-21T09:59:42;11.50;76.40
15394;DHT22;7795;47.986;11.868;2023-11-21T10:02:08;11.50;76.30
15394;DHT22;7795;47.986;11.868;2023-11-21T10:04:39;11.50;76.40
15394;DHT22;7795;47.986;11.868;2023-11-21T10:07:06;11.50;76.30
15394;DHT22;7795;47.986;11.868;2023-11-21T10:09:35;11.60;76.40
15394;DHT22;7795;47.986;11.868;2023-11-21T10:12:01;11.60;76.40
15394;DHT22;7795;47.986;11.868;2023-11-21T10:14:29;11.60;76.50
15394;DHT22;7795;47.986;11.868;2023-11-21T10:16:56;11.60;76.50
15394;DHT22;7795;47.986;11.868;2023-11-21T10:19:23;11.60;76.50
15394;DHT22;7795;47.986;11.868;2023-11-21T10:21:51;11.70;76.70
15394;DHT22;7795;47.986;11.868;2023-11-21T10:24:17;11.70;76.70
15394;DHT22;7795;47.986;11.868;2023-11-21T10:26:43;11.70;76.50
15394;DHT22;7795;47.986;11.868;2023-11-21T10:29:14;11.80;76.50
15394;DHT22;7795;47.986;11.868;2023-11-21T10:31:42;11.80;77.20
15394;DHT22;7795;47.986;11.868;2023-11-21T10:34:13;11.80;76.30
15394;DHT22;7795;47.986;11.868;2023-11-21T10:36:39;11.90;76.10
15394;DHT22;7795;47.986;11.868;2023-11-21T10:39:06;11.90;75.90
15394;DHT22;7795;47.986;11.868;2023-11-21T10:41:32;11.90;75.90
15394;DHT22;7795;47.986;11.868;2023-11-21T10:43:58;11.90;75.90
15394;DHT22;7795;47.986;11.868;2023-11-21T10:46:24;11.90;75.80
15394;DHT22;7795;47.986;11.868;2023-11-21T10:48:54;12.00;75.90
15394;DHT22;7795;47.986;11.868;2023-11-21T10:51:21;12.00;75.80
15394;DHT22;7795;47.986;11.868;2023-11-21T10:53:47;12.00;75.80
15394;DHT22;7795;47.986;11.868;2023-11-21T10:56:18;12.10;75.80
15394;DHT22;7795;47.986;11.868;2023-11-21T10:58:45;12.10;76.50
15394;DHT22;7795;47.986;11.868;2023-11-21T11:01:12;12.10;75.60
15394;DHT22;7795;47.986;11.868;2023-11-21T11:03:40;12.10;75.60
15394;DHT22;7795;47.986;11.868;2023-11-21T11:06:07;12.10;75.50
15394;DHT22;7795;47.986;11.868;2023-11-21T11:08:40;12.20;75.50
15394;DHT22;7795;47.986;11.868;2023-11-21T11:11:06;12.20;75.50
15394;DHT22;7795;47.986;11.868;2023-11-21T11:13:33;12.20;75.60
15394;DHT22;7795;47.986;11.868;2023-11-21T11:16:00;12.30;75.50
15394;DHT22;7795;47.986;11.868;2023-11-21T11:18:27;12.30;75.50
15394;DHT22;7795;47.986;11.868;2023-11-21T11:20:54;12.30;75.30
15394;DHT22;7795;47.986;11.868;2023-11-21T11:23:44;12.40;75.30
15394;DHT22;7795;47.986;11.868;2023-11-21T11:26:19;12.40;75.20
15394;DHT22;7795;47.986;11.868;2023-11-21T11:28:57;12.40;75.10
15394;DHT22;7795;47.986;11.868;2023-11-21T11:31:44;12.40;75.20
15394;DHT22;7795;47.986;11.868;2023-11-21T11:34:20;12.50;75.20
15394;DHT22;7795;47.986;11.868;2023-11-21T11:36:51;12.50;75.10
15394;DHT22;7795;47.986;11.868;2023-11-21T11:39:28;12.60;75.10
15394;DHT22;7795;47.986;11.868;2023-11-21T11:42:02;12.60;74.90
15394;DHT22;7795;47.986;11.868;2023-11-21T11:44:52;12.60;74.90
15394;DHT22;7795;47.986;11.868;2023-11-21T11:47:21;12.70;74.80
15394;DHT22;7795;47.986;11.868;2023-11-21T11:50:03;12.70;74.80
15394;DHT22;7795;47.986;11.868;2023-11-21T11:52:33;12.80;74.50
15394;DHT22;7795;47.986;11.868;2023-11-21T11:55:00;12.80;74.60
15394;DHT22;7795;47.986;11.868;2023-11-21T11:57:26;12.80;74.60
15394;DHT22;7795;47.986;11.868;2023-11-21T12:00:13;12.90;74.60
15394;DHT22;7795;47.986;11.868;2023-11-21T12:02:45;12.90;74.50
15394;DHT22;7795;47.986;11.868;2023-11-21T12:05:11;13.00;74.50
15394;DHT22;7795;47.986;11.868;2023-11-21T12:07:46;13.00;74.30
15394;DHT22;7795;47.986;11.868;2023-11-21T12:10:14;13.00;73.90
15394;DHT22;7795;47.986;11.868;2023-11-21T12:12:43;13.00;73.20
15394;DHT22;7795;47.986;11.868;2023-11-21T12:15:11;13.10;74.80
15394;DHT22;7795;47.986;11.868;2023-11-21T12:17:37;13.10;73.90
15394;DHT22;7795;47.986;11.868;2023-11-21T12:20:04;13.10;73.80
15394;DHT22;7795;47.986;11.868;2023-11-21T12:22:41;13.10;73.60
15394;DHT22;7795;47.986;11.868;2023-11-21T12:25:07;13.10;73.60
15394;DHT22;7795;47.986;11.868;2023-11-21T12:27:33;13.10;73.50
15394;DHT22;7795;47.986;11.868;2023-11-21T12:29:59;13.10;73.30
15394;DHT22;7795;47.986;11.868;2023-11-21T12:32:26;13.10;73.30
15394;DHT22;7795;47.986;11.868;2023-11-21T12:34:52;13.10;73.40
15394;DHT22;7795;47.986;11.868;2023-11-21T12:37:18;13.10;73.40
15394;DHT22;7795;47.986;11.868;2023-11-21T12:39:43;13.10;73.50
15394;DHT22;7795;47.986;11.868;2023-11-21T12:42:09;13.10;73.60
15394;DHT22;7795;47.986;11.868;2023-11-21T12:44:35;13.10;74.20
15394;DHT22;7795;47.986;11.868;2023-11-21T12:47:03;13.10;73.40
15394;DHT22;7795;47.986;11.868;2023-11-21T12:49:30;13.10;73.40
15394;DHT22;7795;47.986;11.868;2023-11-21T12:51:58;13.10;73.30
15394;DHT22;7795;47.986;11.868;2023-11-21T12:54:23;13.10;73.20
15394;DHT22;7795;47.986;11.868;2023-11-21T12:56:49;13.10;73.00
15394;DHT22;7795;47.986;11.868;2023-11-21T12:59:15;13.10;72.90
15394;DHT22;7795;47.986;11.868;2023-11-21T13:01:43;13.10;72.90
15394;DHT22;7795;47.986;11.868;2023-11-21T13:04:09;13.10;72.90
15394;DHT22;7795;47.986;11.868;2023-11-21T13:06:37;13.10;72.80
15394;DHT22;7795;47.986;11.868;2023-11-21T13:09:06;13.10;72.70
15394;DHT22;7795;47.986;11.868;2023-11-21T13:11:34;13.10;72.80
15394;DHT22;7795;47.986;11.868;2023-11-21T13:14:00;13.10;72.70
15394;DHT22;7795;47.986;11.868;2023-11-21T13:16:26;13.20;72.80
15394;DHT22;7795;47.986;11.868;2023-11-21T13:18:52;13.20;72.70
15394;DHT22;7795;47.986;11.868;2023-11-21T13:21:18;13.20;72.70
15394;DHT22;7795;47.986;11.868;2023-11-21T13:23:45;13.20;72.60
15394;DHT22;7795;47.986;11.868;2023-11-21T13:26:12;13.20;72.80
15394;DHT22;7795;47.986;11.868;2023-11-21T13:28:38;13.10;72.90
15394;DHT22;7795;47.986;11.868;2023-11-21T13:31:06;13.10;73.30
15394;DHT22;7795;47.986;11.868;2023-11-21T13:33:35;13.10;73.50
15394;DHT22;7795;47.986;11.868;2023-11-21T13:36:04;13.10;73.70
15394;DHT22;7795;47.986;11.868;2023-11-21T13:38:33;13.00;73.90
15394;DHT22;7795;47.986;11.868;2023-11-21T13:41:02;13.00;73.90
15394;DHT22;7795;47.986;11.868;2023-11-21T13:43:28;13.00;74.10
15394;DHT22;7795;47.986;11.868;2023-11-21T13:45:54;12.90;74.10
15394;DHT22;7795;47.986;11.868;2023-11-21T13:48:29;12.90;74.30
15394;DHT22;7795;47.986;11.868;2023-11-21T13:51:06;12.90;74.40
15394;DHT22;7795;47.986;11.868;2023-11-21T13:53:55;12.90;74.50
15394;DHT22;7795;47.986;11.868;2023-11-21T13:56:22;12.80;74.60
15394;DHT22;7795;47.986;11.868;2023-11-21T13:58:49;12.80;74.70
15394;DHT22;7795;47.986;11.868;2023-11-21T14:01:18;12.80;74.80
15394;DHT22;7795;47.986;11.868;2023-11-21T14:03:55;12.80;74.90
15394;DHT22;7795;47.986;11.868;2023-11-21T14:06:40;12.80;75.00
15394;DHT22;7795;47.986;11.868;2023-11-21T14:09:13;12.70;74.90
15394;DHT22;7795;47.986;11.868;2023-11-21T14:11:49;12.70;75.00
15394;DHT22;7795;47.986;11.868;2023-11-21T14:14:17;12.70;75.10
15394;DHT22;7795;47.986;11.868;2023-11-21T14:16:43;12.70;75.20
15394;DHT22;7795;47.986;11.868;2023-11-21T14:19:10;12.70;75.20
15394;DHT22;7795;47.986;11.868;2023-11-21T14:21:41;12.70;75.30
15394;DHT22;7795;47.986;11.868;2023-11-21T14:24:09;12.70;75.30
15394;DHT22;7795;47.986;11.868;2023-11-21T14:26:35;12.60;75.20
15394;DHT22;7795;47.986;11.868;2023-11-21T14:29:02;12.60;75.10
15394;DHT22;7795;47.986;11.868;2023-11-21T14:31:28;12.60;74.90
15394;DHT22;7795;47.986;11.868;2023-11-21T14:33:56;12.60;74.70
15394;DHT22;7795;47.986;11.868;2023-11-21T14:36:22;12.50;74.40
15394;DHT22;7795;47.986;11.868;2023-11-21T14:38:49;12.50;74.30
15394;DHT22;7795;47.986;11.868;2023-11-21T14:41:15;12.50;74.20
15394;DHT22;7795;47.986;11.868;2023-11-21T14:43:41;12.40;73.90
15394;DHT22;7795;47.986;11.868;2023-11-21T14:46:09;12.40;73.80
15394;DHT22;7795;47.986;11.868;2023-11-21T14:48:39;12.40;73.90
15394;DHT22;7795;47.986;11.868;2023-11-21T14:51:09;12.30;73.90
15394;DHT22;7795;47.986;11.868;2023-11-21T14:53:53;12.20;74.00
15394;DHT22;7795;47.986;11.868;2023-11-21T14:56:19;12.20;74.30
15394;DHT22;7795;47.986;11.868;2023-11-21T14:58:52;12.20;74.60
15394;DHT22;7795;47.986;11.868;2023-11-21T15:01:20;12.10;74.80
15394;DHT22;7795;47.986;11.868;2023-11-21T15:03:56;12.10;74.90
15394;DHT22;7795;47.986;11.868;2023-11-21T15:06:21;12.10;75.00
15394;DHT22;7795;47.986;11.868;2023-11-21T15:08:56;12.10;75.10
15394;DHT22;7795;47.986;11.868;2023-11-21T15:11:35;12.00;75.10
15394;DHT22;7795;47.986;11.868;2023-11-21T15:14:02;12.00;75.20
15394;DHT22;7795;47.986;11.868;2023-11-21T15:16:35;12.00;75.20
15394;DHT22;7795;47.986;11.868;2023-11-21T15:19:11;12.00;75.10
15394;DHT22;7795;47.986;11.868;2023-11-21T15:21:43;12.00;75.10
15394;DHT22;7795;47.986;11.868;2023-11-21T15:24:09;11.90;75.10
15394;DHT22;7795;47.986;11.868;2023-11-21T15:26:36;11.90;75.20
15394;DHT22;7795;47.986;11.868;2023-11-21T15:29:02;11.80;75.20
15394;DHT22;7795;47.986;11.868;2023-11-21T15:31:27;11.80;76.00
15394;DHT22;7795;47.986;11.868;2023-11-21T15:33:54;11.80;75.90
15394;DHT22;7795;47.986;11.868;2023-11-21T15:36:25;11.80;75.80
15394;DHT22;7795;47.986;11.868;2023-11-21T15:38:52;11.70;75.90
15394;DHT22;7795;47.986;11.868;2023-11-21T15:41:18;11.70;76.00